Time;durP1;ratioP1;P1;durP2;ratioP2;P2;SDS_P1;SDS_P2;PMS_P1;PMS_P2;Temp;Humidity;BMP_temperature;BMP_pressure;BME280_temperature;BME280_humidity;BME280_pressure;Samples;Min_cycle;Max_cycle;Signal;HPM_P1;HPM_P2
2023/10/03 00:01:44;;;;;;;4.07;1.67;;;;;;;13.04;60.37;100181.41;5088053;28;20067;-79
2023/10/03 00:04:13;;;;;;;3.50;1.40;;;;;;;12.98;60.32;100164.97;5055070;28;20468;-79
2023/10/03 00:06:46;;;;;;;3.70;1.60;;;;;;;13.03;60.22;100173.59;5054023;28;20048;-78
2023/10/03 00:09:12;;;;;;;7.07;1.60;;;;;;;13.05;60.17;100182.28;5083037;28;20040;-78
2023/10/03 00:11:39;;;;;;;4.10;1.52;;;;;;;12.93;60.27;100159.81;5084866;28;20063;-78
2023/10/03 00:14:07;;;;;;;3.97;1.40;;;;;;;12.94;60.07;100165.00;5079975;28;20044;-79
2023/10/03 00:16:36;;;;;;;3.03;1.45;;;;;;;12.98;60.39;100167.56;5070120;28;20052;-78
2023/10/03 00:19:06;;;;;;;3.28;1.50;;;;;;;12.70;60.15;100121.78;5081962;28;20056;-81
2023/10/03 00:21:36;;;;;;;3.70;1.80;;;;;;;13.04;60.38;100185.78;5088333;28;20174;-81
2023/10/03 00:24:03;;;;;;;3.15;1.65;;;;;;;12.87;60.64;100157.25;5083838;28;20040;-79
2023/10/03 00:26:33;;;;;;;3.88;1.50;;;;;;;12.78;60.91;100160.84;5082418;28;20024;-80
2023/10/03 00:28:59;;;;;;;4.70;1.52;;;;;;;12.72;60.32;100153.97;5083633;28;20040;-81
2023/10/03 00:31:29;;;;;;;5.05;2.10;;;;;;;12.88;60.67;100183.38;5089945;28;20081;-81
2023/10/03 00:33:56;;;;;;;3.50;1.40;;;;;;;12.80;60.63;100180.84;5077641;28;20044;-79
2023/10/03 00:36:24;;;;;;;3.63;2.00;;;;;;;12.65;60.51;100178.41;5067591;28;20036;-81
2023/10/03 00:38:54;;;;;;;2.95;1.60;;;;;;;12.53;60.82;100163.75;5048049;28;20123;-80
2023/10/03 00:41:20;;;;;;;4.18;1.73;;;;;;;12.62;61.10;100189.75;5065379;28;20041;-80
2023/10/03 00:43:59;;;;;;;4.20;1.45;;;;;;;12.05;61.23;100118.13;5065284;28;20040;-80
2023/10/03 00:46:27;;;;;;;3.17;1.55;;;;;;;12.28;61.15;100189.25;5082854;28;20096;-83
2023/10/03 00:48:54;;;;;;;4.65;1.55;;;;;;;12.25;61.47;100204.94;5072029;28;20040;-81
2023/10/03 00:51:21;;;;;;;2.92;1.50;;;;;;;12.13;61.37;100206.78;5080012;28;20063;-79
2023/10/03 00:53:53;;;;;;;5.03;1.60;;;;;;;12.04;62.02;100212.06;5082899;28;20044;-78
2023/10/03 00:56:19;;;;;;;2.97;1.73;;;;;;;11.96;62.08;100208.63;5082585;28;20447;-81
2023/10/03 00:58:48;;;;;;;2.83;1.50;;;;;;;11.88;62.00;100217.38;5084199;28;20082;-79
2023/10/03 01:01:15;;;;;;;4.35;1.70;;;;;;;11.69;62.18;100200.16;5055783;28;20040;-78
2023/10/03 01:03:41;;;;;;;5.05;1.55;;;;;;;11.65;62.65;100201.88;5067004;28;20108;-80
2023/10/03 01:06:09;;;;;;;3.55;1.45;;;;;;;11.19;63.03;100118.81;5086236;28;20143;-77
2023/10/03 01:08:39;;;;;;;5.10;1.85;;;;;;;11.58;63.08;100197.63;5074822;28;20048;-80
2023/10/03 01:11:25;;;;;;;4.57;1.80;;;;;;;11.56;63.01;100207.19;5061630;28;20040;-79
2023/10/03 01:13:59;;;;;;;4.28;1.63;;;;;;;11.35;63.12;100187.31;5050636;28;20067;-77
2023/10/03 01:16:39;;;;;;;5.10;1.52;;;;;;;11.35;63.58;100197.75;5061138;28;20461;-80
2023/10/03 01:22:02;;;;;;;4.03;1.50;;;;;;;11.27;64.16;100203.00;5082898;28;20108;-79
2023/10/03 01:24:29;;;;;;;2.67;1.40;;;;;;;11.25;63.94;100204.75;5082389;28;20051;-80
2023/10/03 01:26:55;;;;;;;3.05;1.50;;;;;;;11.22;64.45;100213.44;5071250;28;20036;-77
2023/10/03 01:29:24;;;;;;;2.50;1.27;;;;;;;11.16;64.35;100203.06;5077968;28;20105;-78
2023/10/03 01:31:52;;;;;;;3.15;1.33;;;;;;;11.08;64.47;100204.81;5085512;28;20041;-81
2023/10/03 01:34:23;;;;;;;3.80;1.10;;;;;;;11.11;64.52;100213.50;5073669;28;20135;-80
2023/10/03 01:36:52;;;;;;;3.53;1.25;;;;;;;11.05;64.54;100203.09;5091944;28;20126;-85
2023/10/03 01:39:20;;;;;;;3.58;1.45;;;;;;;10.92;64.96;100184.06;5065508;28;20203;-83
2023/10/03 01:41:48;;;;;;;4.75;1.67;;;;;;;10.72;65.10;100162.44;5084170;28;20063;-83
2023/10/03 01:44:17;;;;;;;4.15;1.77;;;;;;;10.89;65.11;100186.66;5052940;28;20055;-80
2023/10/03 01:46:47;;;;;;;11.00;2.20;;;;;;;11.03;64.83;100204.00;5084916;28;20041;-78
2023/10/03 01:49:15;;;;;;;10.50;1.92;;;;;;;10.92;65.07;100178.00;5081118;28;20098;-77
2023/10/03 01:51:45;;;;;;;4.90;1.88;;;;;;;11.05;65.07;100184.88;5070630;28;20036;-79
2023/10/03 01:54:14;;;;;;;6.35;2.00;;;;;;;11.25;65.17;100215.16;5069641;28;20040;-78
2023/10/03 01:56:42;;;;;;;6.50;1.73;;;;;;;11.27;65.52;100206.44;5095246;28;20048;-78
2023/10/03 01:59:11;;;;;;;3.85;2.00;;;;;;;11.10;65.26;100180.50;5085518;28;20063;-79
2023/10/03 02:01:43;;;;;;;5.47;1.92;;;;;;;11.30;65.49;100214.25;5068177;28;20067;-77
2023/10/03 02:04:14;;;;;;;5.88;2.00;;;;;;;11.26;65.43;100206.47;5086058;28;20127;-79
2023/10/03 02:06:49;;;;;;;6.65;2.03;;;;;;;11.02;65.18;100178.81;5066920;28;20093;-80
2023/10/03 02:09:18;;;;;;;7.50;2.00;;;;;;;10.96;65.10;100182.28;5083957;28;20043;-78
2023/10/03 02:11:44;;;;;;;5.97;2.47;;;;;;;10.47;65.39;100113.97;5051535;28;20052;-78
2023/10/03 02:14:20;;;;;;;5.75;2.55;;;;;;;10.58;64.99;100163.38;5087939;28;20155;-77
2023/10/03 02:16:51;;;;;;;7.00;2.40;;;;;;;10.63;65.79;100192.81;5070695;28;20079;-79
2023/10/03 02:19:23;;;;;;;4.43;2.08;;;;;;;10.70;65.59;100214.53;5079318;28;20103;-78
2023/10/03 02:21:50;;;;;;;8.02;2.20;;;;;;;10.43;65.74;100185.09;5081864;28;20071;-80
2023/10/03 02:24:22;;;;;;;6.40;2.10;;;;;;;10.42;65.61;100206.78;5083152;28;20033;-80
2023/10/03 02:26:56;;;;;;;4.28;2.75;;;;;;;10.47;65.88;100228.44;5087769;28;20044;-81
2023/10/03 02:29:31;;;;;;;5.30;2.20;;;;;;;10.21;65.99;100207.63;5055088;28;20503;-82
2023/10/03 02:31:58;;;;;;;5.32;2.28;;;;;;;10.19;66.10;100219.75;5090188;28;20091;-81
2023/10/03 02:34:27;;;;;;;7.70;2.35;;;;;;;10.14;65.84;100230.16;5064139;28;20101;-81
2023/10/03 02:36:56;;;;;;;6.18;2.00;;;;;;;10.02;65.99;100212.81;5079805;28;20108;-80
2023/10/03 02:39:35;;;;;;;4.75;1.98;;;;;;;10.10;66.27;100231.03;5060018;28;20075;-79
2023/10/03 02:42:04;;;;;;;6.05;2.00;;;;;;;10.06;66.37;100242.28;5045530;28;20047;-77
2023/10/03 02:44:32;;;;;;;5.72;1.98;;;;;;;9.95;66.71;100232.75;5065029;28;20037;-79
2023/10/03 02:46:58;;;;;;;3.60;2.22;;;;;;;10.01;66.56;100252.69;5066011;28;20040;-81
2023/10/03 02:49:30;;;;;;;5.25;2.38;;;;;;;9.95;67.17;100248.38;5096344;28;20047;-81
2023/10/03 02:51:59;;;;;;;4.47;1.98;;;;;;;9.75;66.80;100221.47;5049524;28;20108;-81
2023/10/03 02:54:34;;;;;;;3.58;2.17;;;;;;;9.70;66.93;100228.41;5067329;28;20113;-81
2023/10/03 02:57:04;;;;;;;4.88;1.77;;;;;;;9.47;67.24;100205.84;5065578;28;20087;-81
2023/10/03 02:59:31;;;;;;;4.25;2.20;;;;;;;9.64;67.46;100250.06;5065194;28;20233;-81
2023/10/03 03:02:00;;;;;;;4.43;2.10;;;;;;;9.61;67.93;100240.50;5066237;28;20048;-82
2023/10/03 03:04:41;;;;;;;3.42;2.20;;;;;;;9.52;67.96;100222.31;5070128;28;20051;-81
2023/10/03 03:07:08;;;;;;;4.15;1.95;;;;;;;9.65;68.22;100233.59;5078335;28;20116;-84
2023/10/03 03:09:38;;;;;;;7.35;2.35;;;;;;;9.30;68.19;100180.72;5067297;28;20096;-81
2023/10/03 03:12:17;;;;;;;6.05;2.20;;;;;;;9.49;68.34;100212.75;5080039;28;20051;-80
2023/10/03 03:14:44;;;;;;;3.70;1.83;;;;;;;9.58;68.32;100242.22;5080170;28;20167;-82
2023/10/03 03:17:14;;;;;;;4.15;1.88;;;;;;;9.41;68.57;100216.22;5084817;28;20059;-83
2023/10/03 03:19:44;;;;;;;5.15;2.00;;;;;;;9.57;68.87;100237.91;5082388;28;20047;-82
2023/10/03 03:22:16;;;;;;;3.05;1.60;;;;;;;9.64;68.38;100248.31;5068513;28;20061;-81
2023/10/03 03:24:51;;;;;;;3.80;1.80;;;;;;;9.64;68.84;100248.31;5065466;28;20039;-80
2023/10/03 03:27:18;;;;;;;3.13;1.77;;;;;;;9.54;69.03;100230.97;5084856;28;20048;-82
2023/10/03 03:30:15;;;;;;;6.68;2.13;;;;;;;9.58;68.83;100232.72;5083189;28;20125;-81
2023/10/03 03:32:34;;;;;;;3.97;1.85;;;;;;;9.52;69.11;100222.31;5079768;28;20055;-80
2023/10/03 03:35:09;;;;;;;4.07;2.20;;;;;;;9.50;69.25;100213.66;5051737;28;20032;-80
2023/10/03 03:37:38;;;;;;;4.97;2.03;;;;;;;9.71;69.26;100243.13;5082292;28;20040;-78
2023/10/03 03:40:12;;;;;;;5.65;2.30;;;;;;;9.73;69.19;100242.25;5083273;28;20135;-78
2023/10/03 03:42:41;;;;;;;5.22;2.40;;;;;;;9.79;69.41;100241.41;5065999;28;20040;-83
2023/10/03 03:45:08;;;;;;;4.32;2.20;;;;;;;9.78;69.46;100237.94;5082142;28;20059;-83
2023/10/03 03:47:39;;;;;;;5.65;2.30;;;;;;;9.87;69.11;100244.03;5066374;28;20502;-87
2023/10/03 03:50:10;;;;;;;2.80;1.65;;;;;;;9.90;69.64;100252.69;5083932;28;20036;-82
2023/10/03 03:52:40;;;;;;;6.25;2.00;;;;;;;9.96;69.38;100257.00;5078963;28;20483;-80
2023/10/03 03:55:08;;;;;;;3.80;2.20;;;;;;;9.97;69.26;100253.56;5079993;28;20058;-81
2023/10/03 03:57:35;;;;;;;3.83;2.40;;;;;;;9.90;69.56;100244.88;5084708;28;20072;-80
2023/10/03 04:00:22;;;;;;;4.00;2.30;;;;;;;10.11;69.24;100269.16;5082366;28;20123;-84
2023/10/03 04:03:05;;;;;;;4.78;2.13;;;;;;;10.05;69.28;100249.22;5067526;28;20036;-81
2023/10/03 04:05:49;;;;;;;3.95;2.03;;;;;;;10.09;69.41;100255.28;5046810;28;20064;-82
2023/10/03 04:08:20;;;;;;;4.47;2.10;;;;;;;10.10;69.20;100246.63;5065605;28;20055;-81
2023/10/03 04:10:49;;;;;;;4.03;2.15;;;;;;;10.27;69.04;100270.03;5049926;28;20036;-80
2023/10/03 04:13:17;;;;;;;5.70;2.40;;;;;;;10.35;69.41;100268.31;5078139;28;20048;-84
2023/10/03 04:15:46;;;;;;;5.90;2.72;;;;;;;10.24;69.51;100229.31;5077359;28;20044;-76
2023/10/03 04:18:13;;;;;;;5.45;2.50;;;;;;;10.31;69.36;100237.09;5074744;28;20144;-78
2023/10/03 04:20:44;;;;;;;8.20;3.05;;;;;;;10.43;68.99;100242.31;5077125;28;20178;-78
2023/10/03 04:23:14;;;;;;;12.85;3.17;;;;;;;10.59;69.09;100255.31;5080436;28;20182;-81
2023/10/03 04:25:50;;;;;;;7.57;2.67;;;;;;;10.70;68.70;100254.41;5073580;28;20037;-75
2023/10/03 04:28:23;;;;;;;8.20;3.38;;;;;;;10.82;68.72;100258.72;5074192;28;20051;-79
2023/10/03 04:30:55;;;;;;;6.03;2.92;;;;;;;10.72;68.52;100249.19;5078348;28;20031;-78
2023/10/03 04:33:25;;;;;;;4.93;2.60;;;;;;;10.64;68.82;100210.16;5063070;28;20051;-79
2023/10/03 04:35:51;;;;;;;5.15;2.78;;;;;;;11.10;68.45;100257.75;5067771;28;20043;-76
2023/10/03 04:38:18;;;;;;;5.78;2.60;;;;;;;11.58;68.09;100247.97;5060497;28;20037;-76
2023/10/03 04:40:47;;;;;;;9.25;3.70;;;;;;;11.98;67.75;100261.63;5060512;28;20044;-74
2023/10/03 04:43:17;;;;;;;9.45;3.58;;;;;;;12.16;67.35;100196.28;5078455;28;20040;-78
2023/10/03 04:45:44;;;;;;;7.60;3.17;;;;;;;13.36;66.93;100257.66;5076734;28;20044;-77
2023/10/03 04:48:13;;;;;;;5.45;2.90;;;;;;;13.89;65.95;100228.19;5061812;28;20050;-78
2023/10/03 04:50:41;;;;;;;10.93;3.65;;;;;;;14.55;64.43;100228.81;5043752;28;20580;-70
2023/10/03 04:53:14;;;;;;;5.63;2.90;;;;;;;15.13;63.16;100252.16;5048220;28;20045;-77
2023/10/03 04:55:47;;;;;;;6.55;2.70;;;;;;;15.48;62.24;100248.78;5080551;28;20104;-77
2023/10/03 04:58:15;;;;;;;9.27;3.28;;;;;;;15.78;61.13;100233.25;5078235;28;20043;-80
2023/10/03 05:00:45;;;;;;;4.55;3.05;;;;;;;16.35;59.73;100244.16;5063343;28;20032;-79
2023/10/03 05:03:13;;;;;;;;;;;;;;;16.73;58.35;100251.06;5078071;28;20079;-76
2023/10/03 05:05:49;;;;;;;10.35;3.58;;;;;;;17.00;57.88;100254.72;5090146;28;19921;-77
2023/10/03 05:08:27;;;;;;;10.00;4.90;;;;;;;17.16;55.35;100229.72;5077142;28;20037;-74
2023/10/03 05:11:06;;;;;;;10.65;6.93;;;;;;;17.59;55.84;100238.09;5077514;28;20047;-71
2023/10/03 05:13:38;;;;;;;5.72;3.20;;;;;;;18.20;54.49;100228.28;5063510;28;20030;-72
2023/10/03 05:16:07;;;;;;;6.15;2.97;;;;;;;18.89;53.36;100242.56;5079372;28;20044;-71
2023/10/03 05:18:39;;;;;;;9.90;3.17;;;;;;;19.39;52.07;100234.56;5061896;28;20118;-78
2023/10/03 05:21:06;;;;;;;7.95;4.20;;;;;;;19.79;50.42;100183.75;5054990;28;20056;-76
2023/10/03 05:23:36;;;;;;;10.57;4.63;;;;;;;20.90;49.13;100238.97;5075691;28;20068;-72
2023/10/03 05:26:02;;;;;;;9.20;3.58;;;;;;;21.61;47.71;100235.72;5061070;28;20525;-78
2023/10/03 05:28:39;;;;;;;6.82;3.75;;;;;;;22.29;45.48;100223.56;5080708;28;20051;-73
2023/10/03 05:31:12;;;;;;;8.68;3.38;;;;;;;23.05;44.42;100219.63;5079471;28;20052;-70
2023/10/03 05:33:38;;;;;;;6.03;3.25;;;;;;;24.02;42.80;100224.00;5045995;28;20040;-71
2023/10/03 05:36:04;;;;;;;8.20;3.45;;;;;;;24.54;40.99;100173.97;5074426;28;20020;-71
2023/10/03 05:38:34;;;;;;;5.78;3.17;;;;;;;25.43;39.14;100198.63;5073651;28;20583;-70
2023/10/03 05:41:03;;;;;;;6.25;3.10;;;;;;;26.27;37.39;100222.44;5059401;28;20047;-69
2023/10/03 05:43:33;;;;;;;12.02;3.47;;;;;;;26.84;36.32;100215.00;5073259;28;20040;-70
2023/10/03 05:46:01;;;;;;;5.97;3.20;;;;;;;27.52;34.75;100218.16;5074457;28;20036;-70
2023/10/03 05:48:28;;;;;;;5.55;3.35;;;;;;;27.96;33.23;100202.44;5059504;28;20455;-70
2023/10/03 05:50:55;;;;;;;9.23;4.03;;;;;;;28.56;32.30;100192.53;5079566;28;20138;-74
2023/10/03 05:53:23;;;;;;;6.82;3.33;;;;;;;29.35;31.38;100214.88;5083621;28;20070;-70
2023/10/03 05:55:55;;;;;;;6.43;3.50;;;;;;;29.98;30.31;100200.81;5069513;28;20032;-70
2023/10/03 05:58:22;;;;;;;6.70;3.78;;;;;;;30.29;28.79;100165.13;5064750;28;20024;-70
2023/10/03 06:00:54;;;;;;;5.82;3.33;;;;;;;31.42;28.89;100197.38;5084810;28;20051;-70
2023/10/03 06:03:26;;;;;;;7.47;3.20;;;;;;;32.06;27.08;100187.91;5076662;28;20080;-73
2023/10/03 06:05:53;;;;;;;7.50;3.58;;;;;;;32.51;26.37;100213.31;5074642;28;20054;-72
2023/10/03 06:08:25;;;;;;;8.23;3.28;;;;;;;32.50;25.27;100157.78;5061529;28;20044;-71
2023/10/03 06:10:57;;;;;;;4.22;2.85;;;;;;;32.93;24.20;100222.84;5080893;28;20032;-81
2023/10/03 06:13:28;;;;;;;7.75;3.42;;;;;;;32.94;24.94;100210.19;5076946;28;20050;-70
2023/10/03 06:15:59;;;;;;;3.85;2.53;;;;;;;32.91;23.96;100184.41;5076107;28;20071;-72
2023/10/03 06:18:29;;;;;;;4.47;2.58;;;;;;;33.08;23.29;100200.78;5066039;28;20043;-69
2023/10/03 06:21:01;;;;;;;5.25;3.13;;;;;;;33.83;22.56;100210.47;5073712;28;20041;-70
2023/10/03 06:23:27;;;;;;;8.55;2.80;;;;;;;33.38;22.24;100164.56;5077576;28;20036;-70
2023/10/03 06:25:54;;;;;;;6.10;3.00;;;;;;;32.18;23.05;100207.44;5069471;28;20033;-71
2023/10/03 06:28:21;;;;;;;5.82;2.70;;;;;;;32.42;23.09;100204.28;5081754;28;20082;-70
2023/10/03 06:31:00;;;;;;;6.32;3.00;;;;;;;33.08;22.18;100214.25;5076708;28;20040;-67
2023/10/03 06:33:57;;;;;;;6.13;3.65;;;;;;;33.26;21.36;100230.47;5068635;28;20552;-69
2023/10/03 06:36:32;;;;;;;5.60;3.55;;;;;;;33.83;21.29;100205.94;5087832;28;20040;-70
2023/10/03 06:39:00;;;;;;;7.80;3.17;;;;;;;34.77;20.20;100217.06;5086017;28;20044;-71
2023/10/03 06:41:33;;;;;;;8.13;3.17;;;;;;;35.33;20.04;100221.16;5066469;28;20045;-70
2023/10/03 06:44:12;;;;;;;9.27;3.60;;;;;;;35.79;19.57;100216.19;5075882;28;20391;-68
2023/10/03 06:46:38;;;;;;;4.70;3.22;;;;;;;36.27;18.88;100213.66;5089274;28;20096;-67
2023/10/03 06:49:10;;;;;;;9.27;2.88;;;;;;;36.86;17.86;100209.78;5089260;28;20055;-69
2023/10/03 06:51:41;;;;;;;5.25;2.60;;;;;;;37.11;17.62;100206.97;5070111;28;20044;-68
2023/10/03 06:54:09;;;;;;;8.50;2.70;;;;;;;37.80;17.19;100206.19;5080703;28;20048;-68
2023/10/03 06:56:47;;;;;;;6.32;2.92;;;;;;;37.95;16.78;100210.81;5087835;28;20036;-69
2023/10/03 06:59:24;;;;;;;3.55;2.63;;;;;;;37.88;16.41;100179.97;5090243;28;20117;-67
2023/10/03 07:01:50;;;;;;;3.55;2.65;;;;;;;38.19;16.27;100206.19;5090597;28;20036;-72
2023/10/03 07:04:18;;;;;;;4.88;3.25;;;;;;;37.95;15.86;100197.25;5065767;28;20067;-69
2023/10/03 07:06:56;;;;;;;5.55;2.25;;;;;;;37.54;15.77;100187.53;5079058;28;20052;-69
2023/10/03 07:09:25;;;;;;;5.60;2.45;;;;;;;37.34;15.40;100217.00;5078125;28;20025;-68
2023/10/03 07:11:52;;;;;;;9.82;2.95;;;;;;;37.50;15.78;100221.50;5078031;28;20036;-69
2023/10/03 07:14:19;;;;;;;7.70;2.65;;;;;;;37.00;15.49;100207.34;5066961;28;20040;-69
2023/10/03 07:16:49;;;;;;;8.32;2.80;;;;;;;37.27;15.08;100183.47;5069511;28;20147;-71
2023/10/03 07:19:16;;;;;;;4.63;2.40;;;;;;;37.32;15.20;100197.34;5077678;28;20103;-70
2023/10/03 07:21:42;;;;;;;6.60;2.92;;;;;;;37.44;14.24;100187.78;5081759;28;20043;-70
2023/10/03 07:24:11;;;;;;;6.22;2.00;;;;;;;37.33;14.91;100220.75;5083865;28;20047;-72
2023/10/03 07:26:37;;;;;;;4.78;2.40;;;;;;;36.88;15.34;100209.56;5066684;28;20040;-70
2023/10/03 07:29:11;;;;;;;4.32;2.05;;;;;;;36.64;15.32;100208.66;5062255;28;20081;-71
2023/10/03 07:31:40;;;;;;;2.58;2.10;;;;;;;36.50;14.91;100202.13;5085871;28;20102;-71
2023/10/03 07:34:13;;;;;;;3.13;2.30;;;;;;;36.14;15.15;100191.66;5080294;28;20064;-72
2023/10/03 07:36:40;;;;;;;5.35;2.22;;;;;;;36.56;14.25;100198.69;5080006;28;20040;-81
2023/10/03 07:39:11;;;;;;;3.15;1.83;;;;;;;36.11;14.64;100206.41;5084573;28;20037;-72
2023/10/03 07:41:37;;;;;;;4.35;2.08;;;;;;;35.85;15.07;100201.97;5101039;28;20057;-70
2023/10/03 07:44:04;;;;;;;4.68;2.47;;;;;;;35.95;15.44;100192.84;5083422;28;20155;-71
2023/10/03 07:46:33;;;;;;;2.75;2.10;;;;;;;36.21;15.10;100194.53;5052940;28;20044;-71
2023/10/03 07:49:02;;;;;;;3.90;2.00;;;;;;;36.40;15.13;100160.78;5075739;28;20040;-69
2023/10/03 07:51:39;;;;;;;5.10;2.13;;;;;;;36.81;14.43;100204.03;5094105;28;20036;-71
2023/10/03 07:54:19;;;;;;;3.72;2.08;;;;;;;36.13;15.53;100203.50;5077548;28;20053;-70
2023/10/03 07:56:45;;;;;;;6.05;2.67;;;;;;;36.15;15.11;100196.06;5066710;28;20040;-69
2023/10/03 07:59:14;;;;;;;3.28;2.15;;;;;;;35.94;14.83;100185.75;5088513;28;20045;-71
2023/10/03 08:01:42;;;;;;;;;;;;;;;35.96;15.44;100206.25;5084682;28;20041;-71
2023/10/03 08:04:12;;;;;;;8.13;2.58;;;;;;;35.13;16.12;100162.84;5074624;28;19927;-69
2023/10/03 08:06:41;;;;;;;3.92;1.90;;;;;;;34.78;16.05;100145.78;5099584;28;20048;-72
2023/10/03 08:09:17;;;;;;;4.43;2.53;;;;;;;35.44;15.42;100174.88;5101331;28;20101;-69
2023/10/03 08:11:52;;;;;;;3.85;2.50;;;;;;;35.23;16.00;100178.91;5083989;28;20032;-68
2023/10/03 08:14:18;;;;;;;4.68;2.97;;;;;;;35.16;15.75;100161.66;5081778;28;20082;-70
2023/10/03 08:16:47;;;;;;;3.92;3.03;;;;;;;34.88;15.88;100132.16;5071022;28;20051;-68
2023/10/03 08:19:26;;;;;;;8.20;7.32;;;;;;;34.69;16.08;100198.13;5064020;28;20036;-72
2023/10/03 08:22:02;;;;;;;7.72;6.85;;;;;;;34.80;16.26;100188.88;5085772;28;20044;-73
2023/10/03 08:24:43;;;;;;;7.03;5.00;;;;;;;34.88;16.06;100174.56;5082119;28;20040;-74
2023/10/03 08:27:18;;;;;;;7.22;5.15;;;;;;;34.59;15.93;100121.75;5080002;28;20082;-75
2023/10/03 08:29:53;;;;;;;4.68;4.05;;;;;;;35.19;15.52;100153.22;5096524;28;20036;-72
2023/10/03 08:32:26;;;;;;;6.40;5.10;;;;;;;35.56;15.49;100134.84;5087646;28;20043;-70
2023/10/03 08:34:55;;;;;;;4.43;3.50;;;;;;;36.39;14.92;100175.34;5063345;28;20575;-71
2023/10/03 08:37:21;;;;;;;5.35;3.17;;;;;;;37.35;14.89;100164.44;5094824;28;20410;-72
2023/10/03 08:39:57;;;;;;;5.35;3.10;;;;;;;38.03;14.04;100142.88;5078435;28;20055;-72
2023/10/03 08:42:36;;;;;;;6.65;2.53;;;;;;;38.24;13.54;100157.59;5079846;28;20045;-70
2023/10/03 08:45:28;;;;;;;3.35;2.25;;;;;;;37.84;13.56;100095.34;5066280;28;20408;-71
2023/10/03 08:48:05;;;;;;;7.15;2.60;;;;;;;38.42;13.20;100143.66;5075218;28;20478;-69
2023/10/03 08:50:46;;;;;;;4.13;2.60;;;;;;;38.34;13.45;100114.69;5082065;28;20052;-73
2023/10/03 08:53:27;;;;;;;3.58;2.20;;;;;;;38.61;13.70;100134.06;5081894;28;20131;-72
2023/10/03 08:56:03;;;;;;;4.15;2.80;;;;;;;38.54;13.12;100103.25;5083874;28;20044;-70
2023/10/03 08:58:30;;;;;;;2.13;1.88;;;;;;;39.19;13.07;100130.56;5107125;28;20060;-71
2023/10/03 09:01:02;;;;;;;4.68;1.83;;;;;;;39.51;12.71;100132.97;5079470;28;20045;-70
2023/10/03 09:03:47;;;;;;;5.05;2.60;;;;;;;39.18;12.61;100134.31;5085585;28;20048;-71
2023/10/03 09:06:22;;;;;;;4.88;2.92;;;;;;;39.31;12.67;100120.03;5063288;28;20055;-70
2023/10/03 09:09:10;;;;;;;3.83;2.40;;;;;;;39.12;13.16;100116.06;5063022;28;20040;-69
2023/10/03 09:11:37;;;;;;;3.40;2.10;;;;;;;39.61;12.51;100128.03;5075813;28;20048;-69
2023/10/03 09:14:08;;;;;;;3.08;2.30;;;;;;;38.57;12.98;100092.00;5051018;22;20431;-69
2023/10/03 09:16:39;;;;;;;6.63;1.98;;;;;;;37.79;13.38;100120.34;4988695;28;20085;-68
2023/10/03 09:19:19;;;;;;;3.58;2.00;;;;;;;36.71;13.97;100113.97;5018971;28;20167;-70
2023/10/03 09:21:52;;;;;;;4.68;2.38;;;;;;;36.97;14.28;100129.09;5021063;28;20042;-72
2023/10/03 09:24:25;;;;;;;4.28;2.10;;;;;;;36.59;14.19;100144.16;5022475;28;20045;-68
2023/10/03 09:27:07;;;;;;;5.10;2.10;;;;;;;37.06;14.41;100118.03;5005497;28;20037;-71
2023/10/03 09:29:35;;;;;;;4.28;2.63;;;;;;;36.32;14.46;100105.63;5024932;28;20038;-69
2023/10/03 09:32:24;;;;;;;3.83;2.70;;;;;;;36.87;14.14;100115.72;5013145;28;20454;-69
2023/10/03 09:35:09;;;;;;;2.83;1.95;;;;;;;35.86;14.61;100110.81;5007347;28;20477;-67
2023/10/03 09:37:36;;;;;;;4.13;2.50;;;;;;;35.16;15.15;100112.16;5018977;28;20041;-69
2023/10/03 09:40:16;;;;;;;5.60;2.75;;;;;;;34.12;15.87;100099.56;5017010;28;20044;-70
2023/10/03 09:42:49;;;;;;;6.25;2.92;;;;;;;33.54;16.63;100111.81;5005698;28;20037;-69
2023/10/03 09:45:27;;;;;;;7.63;2.70;;;;;;;34.32;16.64;100099.31;4993666;28;20046;-70
2023/10/03 09:48:05;;;;;;;7.07;2.47;;;;;;;35.72;15.98;100085.31;5020996;28;20047;-70
2023/10/03 09:50:32;;;;;;;4.63;2.30;;;;;;;37.18;14.40;100075.06;5025927;28;20024;-72
2023/10/03 09:53:01;;;;;;;5.30;2.50;;;;;;;37.21;14.86;100061.13;5041190;28;20105;-70
2023/10/03 09:55:46;;;;;;;3.90;2.37;;;;;;;36.59;14.40;100038.50;5023638;28;20084;-71
2023/10/03 09:58:16;;;;;;;3.83;2.30;;;;;;;35.78;15.29;100086.47;5041425;28;21448;-70
2023/10/03 10:01:04;;;;;;;4.65;2.17;;;;;;;33.04;16.45;100076.28;5007371;28;20041;-71
2023/10/03 10:03:38;;;;;;;3.58;2.20;;;;;;;30.42;18.52;100076.34;5027804;28;20046;-70
2023/10/03 10:06:40;;;;;;;4.65;2.03;;;;;;;29.07;19.69;100075.16;5029496;28;20081;-74
2023/10/03 10:09:23;;;;;;;4.63;2.40;;;;;;;27.81;21.02;100052.94;5020813;28;20042;-71
2023/10/03 10:12:11;;;;;;;5.00;2.00;;;;;;;26.79;21.43;100083.69;5028079;28;20492;-69
2023/10/03 10:17:55;;;;;;;4.63;2.08;;;;;;;24.74;24.52;100100.91;5009656;28;20033;-69
2023/10/03 10:20:27;;;;;;;4.22;2.00;;;;;;;24.04;24.92;100099.00;5013951;28;20042;-70
2023/10/03 10:23:04;;;;;;;6.63;1.90;;;;;;;23.12;26.28;100106.88;5030109;28;20053;-69
2023/10/03 10:25:56;;;;;;;4.40;2.00;;;;;;;22.10;26.86;100038.19;5022554;28;20038;-70
2023/10/03 10:28:31;;;;;;;5.18;2.17;;;;;;;22.06;28.10;100085.19;4995155;28;20038;-71
2023/10/03 10:31:31;;;;;;;5.90;1.80;;;;;;;21.98;28.03;100100.59;5003634;28;20044;-70
2023/10/03 10:34:20;;;;;;;3.60;2.03;;;;;;;21.54;29.05;100107.19;5046484;28;20045;-71
2023/10/03 10:37:10;;;;;;;3.97;2.15;;;;;;;20.91;29.47;100064.38;5046537;28;20060;-69
2023/10/03 10:39:55;;;;;;;6.45;2.83;;;;;;;20.88;29.97;100108.59;5023966;28;20018;-71
2023/10/03 10:42:25;;;;;;;6.18;1.85;;;;;;;20.66;30.64;100085.75;5011988;28;20056;-70
2023/10/03 10:45:13;;;;;;;4.45;2.45;;;;;;;20.76;30.93;100095.03;5048137;28;20105;-68
2023/10/03 10:47:50;;;;;;;4.40;2.40;;;;;;;20.67;31.06;100095.41;5024452;28;20103;-68
2023/10/03 10:50:27;;;;;;;5.97;2.97;;;;;;;20.44;31.25;100092.03;5023231;28;20045;-69
2023/10/03 10:52:57;;;;;;;6.43;2.83;;;;;;;20.13;31.71;100077.56;5018497;28;20077;-70
2023/10/03 10:55:33;;;;;;;6.30;3.03;;;;;;;19.22;31.50;100000.47;5007635;28;20045;-69
2023/10/03 10:58:10;;;;;;;7.00;2.55;;;;;;;19.03;32.32;100024.09;5015918;28;20045;-71
2023/10/03 11:00:45;;;;;;;8.02;2.45;;;;;;;19.37;32.82;100096.59;5026458;28;20098;-72
2023/10/03 11:03:22;;;;;;;5.25;2.63;;;;;;;19.11;33.12;100073.88;5024423;28;20064;-74
2023/10/03 11:06:23;;;;;;;5.25;2.30;;;;;;;19.15;33.21;100096.56;5002920;28;20041;-71
2023/10/03 11:08:54;;;;;;;6.75;2.60;;;;;;;18.70;33.57;100047.34;5019945;28;20054;-72
2023/10/03 11:11:41;;;;;;;4.28;2.40;;;;;;;18.69;34.16;100087.78;5027739;28;20022;-76
2023/10/03 11:14:13;;;;;;;9.30;2.90;;;;;;;18.49;34.49;100065.69;5028417;28;20432;-71
2023/10/03 11:16:55;;;;;;;5.60;2.42;;;;;;;18.63;34.62;100078.34;5013455;28;20038;-70
2023/10/03 11:19:30;;;;;;;7.50;3.50;;;;;;;18.66;34.95;100088.78;5009808;28;20104;-72
2023/10/03 11:21:59;;;;;;;5.28;2.33;;;;;;;18.67;34.69;100072.88;5038921;28;20048;-71
2023/10/03 11:24:38;;;;;;;6.47;2.72;;;;;;;18.85;34.58;100067.84;5020991;28;20097;-72
2023/10/03 11:27:05;;;;;;;8.70;2.90;;;;;;;18.66;34.78;100023.72;5027470;28;20041;-69
2023/10/03 11:29:49;;;;;;;5.32;2.50;;;;;;;19.13;34.45;100077.31;5006472;28;20042;-70
2023/10/03 11:32:59;;;;;;;7.63;3.17;;;;;;;18.95;34.72;100071.84;5020550;28;20053;-69
2023/10/03 11:35:26;;;;;;;8.63;2.42;;;;;;;18.60;34.61;100062.66;5003904;28;20042;-67
2023/10/03 11:37:54;;;;;;;5.55;2.30;;;;;;;18.06;35.57;99999.69;5014468;28;20130;-69
2023/10/03 11:40:23;;;;;;;6.28;2.63;;;;;;;18.28;35.58;100056.81;5002743;28;20082;-70
2023/10/03 11:43:02;;;;;;;7.38;2.67;;;;;;;18.25;35.96;100081.47;5041658;28;20037;-69
2023/10/03 11:45:29;;;;;;;6.78;3.28;;;;;;;17.68;36.43;100008.00;5026742;28;20482;-67
2023/10/03 11:48:23;;;;;;;5.38;2.30;;;;;;;18.09;36.61;100083.81;5025428;28;20037;-68
2023/10/03 11:51:02;;;;;;;6.75;2.60;;;;;;;17.91;36.83;100067.72;5013306;28;20515;-70
2023/10/03 11:53:31;;;;;;;6.95;3.22;;;;;;;17.77;37.01;100041.88;5016892;28;20492;-68
2023/10/03 11:55:58;;;;;;;7.93;2.90;;;;;;;18.11;37.13;100091.66;5018935;28;20045;-67
2023/10/03 11:58:27;;;;;;;5.82;2.55;;;;;;;18.03;37.00;100076.97;5003918;28;20048;-67